Řízení letového provozu České republiky
Letiste: LKCV Aktualizace: 26.05.2019 23:00:25  UTC
 METAR LKCV 26.05. 23:00 ...
METAR LKCV 262300Z VRB02KT CAVOK 15/11 Q1012 NOSIG RMK BLU BLU=
 TAF LKCV 26.05. 17:00 ...
TAF LKCV 261700Z 2618/2718 24004KT CAVOK      BECMG 2707/2709 17005KT 9999 SCT028      BECMG 2711/2713 16015KT BKN035      TEMPO 2715/2718 16015G25KT 7000 SHRA BKN028=